Terminal Aerodrome Forecast
Issued by NWS

Home | Current Version | Previous Version | Text Only | Print | Product List | Glossary On
Versions: 1 2 3 4 5 6 7 8 9 10 11 12 13 14 15 16
000
FTUS43 KLSX 151100 RRA
TAFCPS
TAF
KCPS 151142Z 1512/1612 06006KT P6SM BKN120
     FM151800 08007KT P6SM VCSH OVC050
     FM160300 09004KT P6SM OVC020
     FM161000 VRB03KT 2SM BR OVC005=

USA.gov is the U.S. government's official web portal to all federal, state and local government web resources and services.